Map

Track Data

SID SEASON NUMBER BASIN SUBBASIN NAME ISO_TIME NATURE LAT LON WMO_WIND WMO_PRES WMO_AGENCY TRACK_TYPE DIST2LAND LANDFALL IFLAG USA_AGENCY USA_ATCF_ID USA_LAT USA_LON USA_RECORD USA_STATUS USA_WIND USA_PRES USA_SSHS USA_R34_NE USA_R34_SE USA_R34_SW USA_R34_NW USA_R50_NE USA_R50_SE USA_R50_SW USA_R50_NW USA_R64_NE USA_R64_SE USA_R64_SW USA_R64_NW USA_POCI USA_ROCI USA_RMW USA_EYE TOKYO_LAT TOKYO_LON TOKYO_GRADE TOKYO_WIND TOKYO_PRES TOKYO_R50_DIR TOKYO_R50_LONG TOKYO_R50_SHORT TOKYO_R30_DIR TOKYO_R30_LONG TOKYO_R30_SHORT TOKYO_LAND CMA_LAT CMA_LON CMA_CAT CMA_WIND CMA_PRES HKO_LAT HKO_LON HKO_CAT HKO_WIND HKO_PRES NEWDELHI_LAT NEWDELHI_LON NEWDELHI_GRADE NEWDELHI_WIND NEWDELHI_PRES NEWDELHI_CI NEWDELHI_DP NEWDELHI_POCI REUNION_LAT REUNION_LON REUNION_TYPE REUNION_WIND REUNION_PRES REUNION_TNUM REUNION_CI REUNION_RMW REUNION_R34_NE REUNION_R34_SE REUNION_R34_SW REUNION_R34_NW REUNION_R50_NE REUNION_R50_SE REUNION_R50_SW REUNION_R50_NW REUNION_R64_NE REUNION_R64_SE REUNION_R64_SW REUNION_R64_NW BOM_LAT BOM_LON BOM_TYPE BOM_WIND BOM_PRES BOM_TNUM BOM_CI BOM_RMW BOM_R34_NE BOM_R34_SE BOM_R34_SW BOM_R34_NW BOM_R50_NE BOM_R50_SE BOM_R50_SW BOM_R50_NW BOM_R64_NE BOM_R64_SE BOM_R64_SW BOM_R64_NW BOM_ROCI BOM_POCI BOM_EYE BOM_POS_METHOD BOM_PRES_METHOD NADI_LAT NADI_LON NADI_CAT NADI_WIND NADI_PRES WELLINGTON_LAT WELLINGTON_LON WELLINGTON_WIND WELLINGTON_PRES DS824_LAT DS824_LON DS824_STAGE DS824_WIND DS824_PRES TD9636_LAT TD9636_LON TD9636_STAGE TD9636_WIND TD9636_PRES TD9635_LAT TD9635_LON TD9635_WIND TD9635_PRES TD9635_ROCI NEUMANN_LAT NEUMANN_LON NEUMANN_CLASS NEUMANN_WIND NEUMANN_PRES MLC_LAT MLC_LON MLC_CLASS MLC_WIND MLC_PRES USA_GUST BOM_GUST BOM_GUST_PER REUNION_GUST REUNION_GUST_PER USA_SEAHGT USA_SEARAD_NE USA_SEARAD_SE USA_SEARAD_SW USA_SEARAD_NW STORM_SPEED STORM_DIR
1912008S20155 1912 2 SP EA NOT_NAMED 1912-01-07 23:00:00 NR -19.7000 155.400 main 570 564 __________O___ -1 -19.7000 155.400 7 9 168
1912008S20155 1912 2 SP EA NOT_NAMED 1912-01-08 00:00:00 NR -19.8450 155.437 main 564 545 __________P___ -1 -19.8450 155.437 7 9 167
1912008S20155 1912 2 SP EA NOT_NAMED 1912-01-08 03:00:00 NR -20.2787 155.548 main 545 515 __________P___ -1 -20.2787 155.548 7 9 167
1912008S20155 1912 2 SP EA NOT_NAMED 1912-01-08 06:00:00 NR -20.7072 155.653 main 520 481 __________P___ -1 -20.7072 155.653 7 9 168
1912008S20155 1912 2 SP EA NOT_NAMED 1912-01-08 09:00:00 NR -21.1269 155.747 main 481 457 __________P___ -1 -21.1269 155.747 7 9 169
1912008S20155 1912 2 SP EA NOT_NAMED 1912-01-08 11:00:00 NR -21.4000 155.800 main 457 448 __________O___ -1 -21.4000 155.800 7 8 170
1912008S20155 1912 2 SP EA NOT_NAMED 1912-01-08 12:00:00 NR -21.5341 155.824 main 448 418 __________P___ -1 -21.5341 155.824 7 8 172
1912008S20155 1912 2 SP EA NOT_NAMED 1912-01-08 15:00:00 NR -21.9265 155.887 main 418 385 __________P___ -1 -21.9265 155.887 7 8 171
1912008S20155 1912 2 SP EA NOT_NAMED 1912-01-08 18:00:00 NR -22.3040 155.950 main 392 368 __________P___ -1 -22.3040 155.950 7 8 170
1912008S20155 1912 2 SP EA NOT_NAMED 1912-01-08 21:00:00 NR -22.6666 156.030 main 361 355 __________P___ -1 -22.6666 156.030 7 7 167
1912008S20155 1912 2 SP EA NOT_NAMED 1912-01-08 23:00:00 NR -22.9000 156.100 main 355 348 __________O___ -1 -22.9000 156.100 7 7 163
1912008S20155 1912 2 SP EA NOT_NAMED 1912-01-09 00:00:00 NR -23.0175 156.140 main 348 338 __________P___ -1 -23.0175 156.140 7 7 160
1912008S20155 1912 2 SP EA NOT_NAMED 1912-01-09 03:00:00 NR -23.3599 156.280 main 342 336 __________P___ -1 -23.3599 156.280 7 7 157
1912008S20155 1912 2 SP EA NOT_NAMED 1912-01-09 06:00:00 NR -23.6873 156.450 main 345 341 __________P___ -1 -23.6873 156.450 7 7 152
1912008S20155 1912 2 SP EA NOT_NAMED 1912-01-09 09:00:00 NR -23.9999 156.650 main 351 348 __________P___ -1 -23.9999 156.650 7 7 148
1912008S20155 1912 2 SP EA NOT_NAMED 1912-01-09 11:00:00 NR -24.2000 156.800 main 354 354 __________O___ -1 -24.2000 156.800 7 7 145
1912008S20155 1912 2 SP EA NOT_NAMED 1912-01-09 12:00:00 NR -24.2976 156.880 main 362 359 __________P___ -1 -24.2976 156.880 7 7 141
1912008S20155 1912 2 SP EA NOT_NAMED 1912-01-09 15:00:00 NR -24.5819 157.136 main 375 375 __________P___ -1 -24.5819 157.136 7 7 139
1912008S20155 1912 2 SP EA NOT_NAMED 1912-01-09 18:00:00 NR -24.8560 157.413 main 403 403 __________P___ -1 -24.8560 157.413 7 7 137
1912008S20155 1912 2 SP EA NOT_NAMED 1912-01-09 21:00:00 NR -25.1236 157.703 main 432 432 __________P___ -1 -25.1236 157.703 7 8 135
1912008S20155 1912 2 SP EA NOT_NAMED 1912-01-09 23:00:00 NR -25.3000 157.900 main 453 __________O___ -1 -25.3000 157.900 7 8 135

Digital Typhoon Data and Search

About IBTrACS Database

This database is a web-friendly format of International Best Track Archive for Climate Stewardship (IBTrACS), a global best track data archive curated by NOAA dating back to 1842.

Updated: 2021-10-08